sensor_id;sensor_type;location;lat;lon;timestamp;pressure;altitude;pressure_sealevel;temperature;humidity
71774;BME280;59607;52.130;5.430;2023-04-27T00:01:19;102254.25;;;3.36;100.00
71774;BME280;59607;52.130;5.430;2023-04-27T00:03:45;102256.16;;;3.32;100.00
71774;BME280;59607;52.130;5.430;2023-04-27T00:06:16;102254.44;;;3.31;100.00
71774;BME280;59607;52.130;5.430;2023-04-27T00:08:42;102256.06;;;3.33;100.00
71774;BME280;59607;52.130;5.430;2023-04-27T00:11:09;102263.06;;;3.31;100.00
71774;BME280;59607;52.130;5.430;2023-04-27T00:13:38;102262.06;;;3.18;100.00
71774;BME280;59607;52.130;5.430;2023-04-27T00:16:07;102264.56;;;3.19;100.00
71774;BME280;59607;52.130;5.430;2023-04-27T00:18:34;102257.06;;;3.13;100.00
71774;BME280;59607;52.130;5.430;2023-04-27T00:21:03;102259.97;;;3.07;100.00
71774;BME280;59607;52.130;5.430;2023-04-27T00:23:31;102259.59;;;3.15;100.00
71774;BME280;59607;52.130;5.430;2023-04-27T00:25:58;102261.38;;;3.14;100.00
71774;BME280;59607;52.130;5.430;2023-04-27T00:28:27;102266.63;;;3.13;100.00
71774;BME280;59607;52.130;5.430;2023-04-27T00:30:57;102262.25;;;3.13;100.00
71774;BME280;59607;52.130;5.430;2023-04-27T00:33:24;102261.97;;;3.02;100.00
71774;BME280;59607;52.130;5.430;2023-04-27T00:35:58;102259.44;;;3.00;100.00
71774;BME280;59607;52.130;5.430;2023-04-27T00:38:27;102250.84;;;3.00;100.00
71774;BME280;59607;52.130;5.430;2023-04-27T00:41:03;102244.13;;;2.95;100.00
71774;BME280;59607;52.130;5.430;2023-04-27T00:43:30;102256.28;;;2.95;100.00
71774;BME280;59607;52.130;5.430;2023-04-27T00:45:57;102258.16;;;2.91;100.00
71774;BME280;59607;52.130;5.430;2023-04-27T00:48:27;102255.81;;;2.87;100.00
71774;BME280;59607;52.130;5.430;2023-04-27T00:50:54;102260.00;;;2.89;100.00
71774;BME280;59607;52.130;5.430;2023-04-27T00:53:24;102262.66;;;2.88;100.00
71774;BME280;59607;52.130;5.430;2023-04-27T00:55:54;102262.81;;;2.84;100.00
71774;BME280;59607;52.130;5.430;2023-04-27T00:58:23;102260.47;;;2.80;100.00
71774;BME280;59607;52.130;5.430;2023-04-27T01:00:53;102262.44;;;2.75;100.00
71774;BME280;59607;52.130;5.430;2023-04-27T01:03:19;102255.50;;;2.75;100.00
71774;BME280;59607;52.130;5.430;2023-04-27T01:05:49;102254.81;;;2.71;100.00
71774;BME280;59607;52.130;5.430;2023-04-27T01:08:19;102250.94;;;2.63;100.00
71774;BME280;59607;52.130;5.430;2023-04-27T01:10:45;102251.06;;;2.59;100.00
71774;BME280;59607;52.130;5.430;2023-04-27T01:13:19;102244.34;;;2.55;100.00
71774;BME280;59607;52.130;5.430;2023-04-27T01:15:46;102242.41;;;2.61;100.00
71774;BME280;59607;52.130;5.430;2023-04-27T01:18:18;102236.91;;;2.49;100.00
71774;BME280;59607;52.130;5.430;2023-04-27T01:20:48;102243.19;;;2.43;100.00
71774;BME280;59607;52.130;5.430;2023-04-27T01:23:18;102240.53;;;2.45;100.00
71774;BME280;59607;52.130;5.430;2023-04-27T01:25:47;102238.72;;;2.47;100.00
71774;BME280;59607;52.130;5.430;2023-04-27T01:28:13;102251.66;;;2.47;100.00
71774;BME280;59607;52.130;5.430;2023-04-27T01:30:46;102260.44;;;2.44;100.00
71774;BME280;59607;52.130;5.430;2023-04-27T01:33:14;102257.84;;;2.44;100.00
71774;BME280;59607;52.130;5.430;2023-04-27T01:35:41;102267.41;;;2.42;100.00
71774;BME280;59607;52.130;5.430;2023-04-27T01:38:08;102255.69;;;2.35;100.00
71774;BME280;59607;52.130;5.430;2023-04-27T01:40:37;102248.28;;;2.27;100.00
71774;BME280;59607;52.130;5.430;2023-04-27T01:43:04;102237.97;;;2.26;100.00
71774;BME280;59607;52.130;5.430;2023-04-27T01:45:33;102240.34;;;2.30;100.00
71774;BME280;59607;52.130;5.430;2023-04-27T01:48:00;102232.81;;;2.26;100.00
71774;BME280;59607;52.130;5.430;2023-04-27T01:50:26;102227.94;;;2.19;100.00
71774;BME280;59607;52.130;5.430;2023-04-27T01:52:56;102229.47;;;2.24;100.00
71774;BME280;59607;52.130;5.430;2023-04-27T01:55:25;102228.41;;;2.28;100.00
71774;BME280;59607;52.130;5.430;2023-04-27T01:57:51;102227.69;;;2.24;100.00
71774;BME280;59607;52.130;5.430;2023-04-27T02:00:21;102226.34;;;2.17;100.00
71774;BME280;59607;52.130;5.430;2023-04-27T02:02:47;102229.06;;;2.14;100.00
71774;BME280;59607;52.130;5.430;2023-04-27T02:05:16;102223.88;;;2.14;100.00
71774;BME280;59607;52.130;5.430;2023-04-27T02:07:51;102232.84;;;2.06;100.00
71774;BME280;59607;52.130;5.430;2023-04-27T02:10:17;102234.88;;;2.00;100.00
71774;BME280;59607;52.130;5.430;2023-04-27T02:12:45;102235.78;;;1.99;100.00
71774;BME280;59607;52.130;5.430;2023-04-27T02:15:17;102237.75;;;1.93;100.00
71774;BME280;59607;52.130;5.430;2023-04-27T02:17:43;102240.19;;;1.96;100.00
71774;BME280;59607;52.130;5.430;2023-04-27T02:20:13;102239.38;;;1.96;100.00
71774;BME280;59607;52.130;5.430;2023-04-27T02:22:48;102235.78;;;1.99;100.00
71774;BME280;59607;52.130;5.430;2023-04-27T02:25:15;102233.91;;;2.02;100.00
71774;BME280;59607;52.130;5.430;2023-04-27T02:27:42;102233.13;;;2.00;100.00
71774;BME280;59607;52.130;5.430;2023-04-27T02:30:10;102233.50;;;1.92;100.00
71774;BME280;59607;52.130;5.430;2023-04-27T02:32:56;102230.91;;;1.92;100.00
71774;BME280;59607;52.130;5.430;2023-04-27T02:35:27;102233.72;;;1.88;100.00
71774;BME280;59607;52.130;5.430;2023-04-27T02:37:54;102230.06;;;1.92;100.00
71774;BME280;59607;52.130;5.430;2023-04-27T02:40:26;102227.47;;;1.92;100.00
71774;BME280;59607;52.130;5.430;2023-04-27T02:42:56;102230.06;;;1.92;100.00
71774;BME280;59607;52.130;5.430;2023-04-27T02:45:27;102220.78;;;1.88;100.00
71774;BME280;59607;52.130;5.430;2023-04-27T02:47:59;102222.50;;;1.87;100.00
71774;BME280;59607;52.130;5.430;2023-04-27T02:50:28;102214.88;;;1.84;100.00
71774;BME280;59607;52.130;5.430;2023-04-27T02:53:05;102218.47;;;1.81;100.00
71774;BME280;59607;52.130;5.430;2023-04-27T02:55:32;102214.41;;;1.76;100.00
71774;BME280;59607;52.130;5.430;2023-04-27T02:57:59;102211.66;;;1.79;100.00
71774;BME280;59607;52.130;5.430;2023-04-27T03:00:26;102218.88;;;1.72;100.00
71774;BME280;59607;52.130;5.430;2023-04-27T03:02:52;102220.06;;;1.65;100.00
71774;BME280;59607;52.130;5.430;2023-04-27T03:05:26;102217.34;;;1.68;100.00
71774;BME280;59607;52.130;5.430;2023-04-27T03:07:54;102218.25;;;1.67;100.00
71774;BME280;59607;52.130;5.430;2023-04-27T03:10:27;102221.94;;;1.61;100.00
71774;BME280;59607;52.130;5.430;2023-04-27T03:12:53;102225.59;;;1.57;100.00
71774;BME280;59607;52.130;5.430;2023-04-27T03:15:30;102222.22;;;1.55;100.00
71774;BME280;59607;52.130;5.430;2023-04-27T03:17:56;102226.91;;;1.46;100.00
71774;BME280;59607;52.130;5.430;2023-04-27T03:20:25;102227.88;;;1.44;100.00
71774;BME280;59607;52.130;5.430;2023-04-27T03:22:58;102228.97;;;1.38;100.00
71774;BME280;59607;52.130;5.430;2023-04-27T03:25:24;102227.44;;;1.34;100.00
71774;BME280;59607;52.130;5.430;2023-04-27T03:27:57;102235.19;;;1.34;100.00
71774;BME280;59607;52.130;5.430;2023-04-27T03:30:23;102234.34;;;1.33;100.00
71774;BME280;59607;52.130;5.430;2023-04-27T03:32:50;102223.88;;;1.37;100.00
71774;BME280;59607;52.130;5.430;2023-04-27T03:35:16;102229.91;;;1.37;100.00
71774;BME280;59607;52.130;5.430;2023-04-27T03:37:43;102227.94;;;1.42;100.00
71774;BME280;59607;52.130;5.430;2023-04-27T03:40:12;102229.75;;;1.40;100.00
71774;BME280;59607;52.130;5.430;2023-04-27T03:42:41;102224.66;;;1.39;100.00
71774;BME280;59607;52.130;5.430;2023-04-27T03:45:10;102231.06;;;1.30;100.00
71774;BME280;59607;52.130;5.430;2023-04-27T03:47:43;102235.88;;;1.18;100.00
71774;BME280;59607;52.130;5.430;2023-04-27T03:50:09;102230.94;;;1.12;100.00
71774;BME280;59607;52.130;5.430;2023-04-27T03:52:36;102242.19;;;1.11;100.00
71774;BME280;59607;52.130;5.430;2023-04-27T03:55:04;102232.66;;;1.13;100.00
71774;BME280;59607;52.130;5.430;2023-04-27T03:57:34;102236.75;;;1.17;100.00
71774;BME280;59607;52.130;5.430;2023-04-27T04:00:01;102230.81;;;1.15;100.00
71774;BME280;59607;52.130;5.430;2023-04-27T04:02:30;102233.28;;;1.18;100.00
71774;BME280;59607;52.130;5.430;2023-04-27T04:05:00;102235.88;;;1.18;100.00
71774;BME280;59607;52.130;5.430;2023-04-27T04:07:27;102238.47;;;1.18;100.00
71774;BME280;59607;52.130;5.430;2023-04-27T04:09:56;102235.16;;;1.15;100.00
71774;BME280;59607;52.130;5.430;2023-04-27T04:12:30;102231.47;;;1.20;100.00
71774;BME280;59607;52.130;5.430;2023-04-27T04:14:57;102239.00;;;1.25;100.00
71774;BME280;59607;52.130;5.430;2023-04-27T04:17:27;102239.78;;;1.27;100.00
71774;BME280;59607;52.130;5.430;2023-04-27T04:19:53;102238.19;;;1.25;100.00
71774;BME280;59607;52.130;5.430;2023-04-27T04:22:23;102237.84;;;1.32;100.00
71774;BME280;59607;52.130;5.430;2023-04-27T04:24:50;102244.50;;;1.38;100.00
71774;BME280;59607;52.130;5.430;2023-04-27T04:27:16;102252.00;;;1.44;100.00
71774;BME280;59607;52.130;5.430;2023-04-27T04:29:45;102245.63;;;1.52;100.00
71774;BME280;59607;52.130;5.430;2023-04-27T04:32:13;102253.06;;;1.59;100.00
71774;BME280;59607;52.130;5.430;2023-04-27T04:34:46;102249.31;;;1.67;100.00
71774;BME280;59607;52.130;5.430;2023-04-27T04:37:16;102251.88;;;1.67;100.00
71774;BME280;59607;52.130;5.430;2023-04-27T04:39:46;102257.63;;;1.74;100.00
71774;BME280;59607;52.130;5.430;2023-04-27T04:42:15;102258.31;;;1.77;100.00
71774;BME280;59607;52.130;5.430;2023-04-27T04:44:44;102259.00;;;1.81;100.00
71774;BME280;59607;52.130;5.430;2023-04-27T04:47:14;102268.38;;;1.83;100.00
71774;BME280;59607;52.130;5.430;2023-04-27T04:49:44;102266.91;;;1.97;100.00
71774;BME280;59607;52.130;5.430;2023-04-27T04:52:10;102260.34;;;2.09;100.00
71774;BME280;59607;52.130;5.430;2023-04-27T04:54:39;102268.66;;;2.35;98.47
71774;BME280;59607;52.130;5.430;2023-04-27T04:57:10;102267.06;;;2.50;97.32
71774;BME280;59607;52.130;5.430;2023-04-27T04:59:39;102266.47;;;2.63;96.55
71774;BME280;59607;52.130;5.430;2023-04-27T05:02:12;102270.75;;;2.81;95.84
71774;BME280;59607;52.130;5.430;2023-04-27T05:04:39;102265.63;;;2.98;95.23
71774;BME280;59607;52.130;5.430;2023-04-27T05:07:13;102263.44;;;3.41;95.03
71774;BME280;59607;52.130;5.430;2023-04-27T05:09:42;102261.09;;;3.87;94.04
71774;BME280;59607;52.130;5.430;2023-04-27T05:12:17;102253.94;;;4.69;90.35
71774;BME280;59607;52.130;5.430;2023-04-27T05:14:43;102243.44;;;6.02;86.18
71774;BME280;59607;52.130;5.430;2023-04-27T05:17:10;102249.03;;;7.44;78.24
71774;BME280;59607;52.130;5.430;2023-04-27T05:19:36;102235.25;;;8.53;72.49
71774;BME280;59607;52.130;5.430;2023-04-27T05:22:10;102235.25;;;9.46;68.15
71774;BME280;59607;52.130;5.430;2023-04-27T05:24:39;102234.34;;;10.24;64.51
71774;BME280;59607;52.130;5.430;2023-04-27T05:27:13;102232.13;;;10.84;61.74
71774;BME280;59607;52.130;5.430;2023-04-27T05:29:56;102234.63;;;11.48;59.79
71774;BME280;59607;52.130;5.430;2023-04-27T05:32:38;102245.53;;;11.43;58.25
71774;BME280;59607;52.130;5.430;2023-04-27T05:35:12;102245.69;;;11.62;57.87
71774;BME280;59607;52.130;5.430;2023-04-27T05:37:39;102246.03;;;11.88;56.21
71774;BME280;59607;52.130;5.430;2023-04-27T05:40:20;102243.19;;;12.21;55.25
71774;BME280;59607;52.130;5.430;2023-04-27T05:42:54;102239.69;;;13.08;53.34
71774;BME280;59607;52.130;5.430;2023-04-27T05:45:21;102235.03;;;13.58;51.66
71774;BME280;59607;52.130;5.430;2023-04-27T05:47:49;102240.63;;;14.10;50.65
71774;BME280;59607;52.130;5.430;2023-04-27T05:50:18;102240.75;;;13.53;50.75
71774;BME280;59607;52.130;5.430;2023-04-27T05:52:44;102244.19;;;13.26;51.27
71774;BME280;59607;52.130;5.430;2023-04-27T05:55:17;102238.97;;;13.90;50.54
71774;BME280;59607;52.130;5.430;2023-04-27T05:57:46;102238.41;;;14.60;48.76
71774;BME280;59607;52.130;5.430;2023-04-27T06:00:29;102236.47;;;14.43;47.58
71774;BME280;59607;52.130;5.430;2023-04-27T06:02:59;102241.31;;;14.12;48.53
71774;BME280;59607;52.130;5.430;2023-04-27T06:05:29;102238.25;;;14.61;47.67
71774;BME280;59607;52.130;5.430;2023-04-27T06:07:59;102237.84;;;14.74;47.41
71774;BME280;59607;52.130;5.430;2023-04-27T06:10:42;102241.00;;;13.97;48.32
71774;BME280;59607;52.130;5.430;2023-04-27T06:13:11;102244.88;;;13.28;48.47
71774;BME280;59607;52.130;5.430;2023-04-27T06:15:37;102253.69;;;11.40;52.50
71774;BME280;59607;52.130;5.430;2023-04-27T06:18:08;102257.94;;;10.24;56.22
71774;BME280;59607;52.130;5.430;2023-04-27T06:20:38;102257.75;;;9.37;59.24
71774;BME280;59607;52.130;5.430;2023-04-27T06:23:04;102254.25;;;8.91;60.60
71774;BME280;59607;52.130;5.430;2023-04-27T06:25:38;102256.88;;;8.55;61.50
71774;BME280;59607;52.130;5.430;2023-04-27T06:28:05;102256.28;;;8.27;62.96
71774;BME280;59607;52.130;5.430;2023-04-27T06:30:32;102264.16;;;7.89;63.81
71774;BME280;59607;52.130;5.430;2023-04-27T06:33:03;102262.47;;;7.88;64.98
71774;BME280;59607;52.130;5.430;2023-04-27T06:35:29;102263.84;;;7.94;65.41
71774;BME280;59607;52.130;5.430;2023-04-27T06:37:57;102264.06;;;7.91;66.33
71774;BME280;59607;52.130;5.430;2023-04-27T06:40:29;102262.78;;;7.97;66.85
71774;BME280;59607;52.130;5.430;2023-04-27T06:42:55;102263.44;;;7.87;66.99
71774;BME280;59607;52.130;5.430;2023-04-27T06:45:24;102262.69;;;7.85;67.23
71774;BME280;59607;52.130;5.430;2023-04-27T06:47:51;102266.81;;;7.76;67.02
71774;BME280;59607;52.130;5.430;2023-04-27T06:50:17;102266.72;;;7.78;67.86
71774;BME280;59607;52.130;5.430;2023-04-27T06:52:44;102272.84;;;7.77;67.69
71774;BME280;59607;52.130;5.430;2023-04-27T06:55:16;102269.19;;;7.93;67.50
71774;BME280;59607;52.130;5.430;2023-04-27T06:57:43;102262.41;;;8.14;67.46
71774;BME280;59607;52.130;5.430;2023-04-27T07:00:14;102265.19;;;8.24;67.20
71774;BME280;59607;52.130;5.430;2023-04-27T07:02:43;102259.13;;;8.24;65.77
71774;BME280;59607;52.130;5.430;2023-04-27T07:05:10;102260.69;;;8.26;65.99
71774;BME280;59607;52.130;5.430;2023-04-27T07:07:36;102259.72;;;8.27;65.69
71774;BME280;59607;52.130;5.430;2023-04-27T07:10:07;102265.56;;;8.31;65.63
71774;BME280;59607;52.130;5.430;2023-04-27T07:12:36;102258.84;;;8.40;65.57
71774;BME280;59607;52.130;5.430;2023-04-27T07:15:09;102253.16;;;8.46;64.50
71774;BME280;59607;52.130;5.430;2023-04-27T07:17:35;102266.31;;;8.58;64.43
71774;BME280;59607;52.130;5.430;2023-04-27T07:20:09;102268.16;;;8.80;64.14
71774;BME280;59607;52.130;5.430;2023-04-27T07:22:36;102271.72;;;8.91;63.17
71774;BME280;59607;52.130;5.430;2023-04-27T07:25:04;102267.72;;;8.98;62.83
71774;BME280;59607;52.130;5.430;2023-04-27T07:27:34;102278.28;;;8.96;62.78
71774;BME280;59607;52.130;5.430;2023-04-27T07:30:01;102267.84;;;9.08;62.22
71774;BME280;59607;52.130;5.430;2023-04-27T07:32:28;102268.56;;;9.21;61.71
71774;BME280;59607;52.130;5.430;2023-04-27T07:35:07;102269.16;;;9.25;60.57
71774;BME280;59607;52.130;5.430;2023-04-27T07:37:40;102256.53;;;9.30;60.01
71774;BME280;59607;52.130;5.430;2023-04-27T07:40:07;102253.81;;;9.43;59.29
71774;BME280;59607;52.130;5.430;2023-04-27T07:42:45;102254.41;;;9.47;58.65
71774;BME280;59607;52.130;5.430;2023-04-27T07:45:11;102256.16;;;9.69;58.73
71774;BME280;59607;52.130;5.430;2023-04-27T07:47:41;102249.72;;;9.62;57.82
71774;BME280;59607;52.130;5.430;2023-04-27T07:50:12;102250.22;;;9.56;57.05
71774;BME280;59607;52.130;5.430;2023-04-27T07:52:58;102256.91;;;9.60;56.68
71774;BME280;59607;52.130;5.430;2023-04-27T07:55:26;102255.56;;;9.66;56.71
71774;BME280;59607;52.130;5.430;2023-04-27T07:57:57;102257.66;;;9.95;56.12
71774;BME280;59607;52.130;5.430;2023-04-27T08:00:29;102255.75;;;9.97;55.78
71774;BME280;59607;52.130;5.430;2023-04-27T08:03:00;102254.91;;;9.96;55.83
71774;BME280;59607;52.130;5.430;2023-04-27T08:05:30;102253.13;;;9.97;55.10
71774;BME280;59607;52.130;5.430;2023-04-27T08:07:57;102248.50;;;10.22;55.17
71774;BME280;59607;52.130;5.430;2023-04-27T08:10:23;102250.84;;;10.36;55.22
71774;BME280;59607;52.130;5.430;2023-04-27T08:12:53;102260.59;;;10.46;55.00
71774;BME280;59607;52.130;5.430;2023-04-27T08:15:23;102257.44;;;10.64;55.07
71774;BME280;59607;52.130;5.430;2023-04-27T08:17:49;102258.03;;;10.77;54.05
71774;BME280;59607;52.130;5.430;2023-04-27T08:20:19;102254.81;;;10.64;53.83
71774;BME280;59607;52.130;5.430;2023-04-27T08:22:45;102253.97;;;10.63;53.61
71774;BME280;59607;52.130;5.430;2023-04-27T08:25:12;102246.16;;;10.73;53.04
71774;BME280;59607;52.130;5.430;2023-04-27T08:27:40;102261.50;;;10.78;53.35
71774;BME280;59607;52.130;5.430;2023-04-27T08:30:12;102254.59;;;10.98;51.88
71774;BME280;59607;52.130;5.430;2023-04-27T08:32:39;102259.63;;;11.11;52.18
71774;BME280;59607;52.130;5.430;2023-04-27T08:35:13;102253.69;;;10.88;50.91
71774;BME280;59607;52.130;5.430;2023-04-27T08:37:39;102250.56;;;10.94;50.79
71774;BME280;59607;52.130;5.430;2023-04-27T08:40:09;102249.38;;;11.08;50.41
71774;BME280;59607;52.130;5.430;2023-04-27T08:42:51;102244.38;;;11.05;50.98
71774;BME280;59607;52.130;5.430;2023-04-27T08:45:19;102242.81;;;10.92;50.98
71774;BME280;59607;52.130;5.430;2023-04-27T08:47:45;102252.84;;;11.08;50.79
71774;BME280;59607;52.130;5.430;2023-04-27T08:50:12;102249.91;;;11.33;50.59
71774;BME280;59607;52.130;5.430;2023-04-27T08:52:56;102251.28;;;11.27;49.95
71774;BME280;59607;52.130;5.430;2023-04-27T08:55:25;102251.06;;;11.40;49.11
71774;BME280;59607;52.130;5.430;2023-04-27T08:57:59;102243.03;;;11.42;47.74
71774;BME280;59607;52.130;5.430;2023-04-27T09:00:42;102244.78;;;11.31;48.01
71774;BME280;59607;52.130;5.430;2023-04-27T09:03:24;102245.28;;;11.56;49.21
71774;BME280;59607;52.130;5.430;2023-04-27T09:05:51;102239.22;;;11.66;49.08
71774;BME280;59607;52.130;5.430;2023-04-27T09:08:51;102244.50;;;11.76;49.25
71774;BME280;59607;52.130;5.430;2023-04-27T09:11:53;102251.84;;;11.82;49.29
71774;BME280;59607;52.130;5.430;2023-04-27T09:14:21;102250.44;;;11.78;47.12
71774;BME280;59607;52.130;5.430;2023-04-27T09:16:57;102238.88;;;12.00;48.88
71774;BME280;59607;52.130;5.430;2023-04-27T09:19:27;102241.09;;;12.25;46.52
71774;BME280;59607;52.130;5.430;2023-04-27T09:22:09;102235.16;;;12.13;47.03
71774;BME280;59607;52.130;5.430;2023-04-27T09:24:57;102234.31;;;12.42;47.10
71774;BME280;59607;52.130;5.430;2023-04-27T09:27:26;102225.72;;;12.40;46.52
71774;BME280;59607;52.130;5.430;2023-04-27T09:29:54;102223.97;;;12.78;46.40
71774;BME280;59607;52.130;5.430;2023-04-27T09:32:26;102225.72;;;12.98;46.48
71774;BME280;59607;52.130;5.430;2023-04-27T09:34:53;102222.34;;;13.15;45.23
71774;BME280;59607;52.130;5.430;2023-04-27T09:37:23;102219.78;;;12.95;46.19
71774;BME280;59607;52.130;5.430;2023-04-27T09:39:52;102217.22;;;13.14;45.42
71774;BME280;59607;52.130;5.430;2023-04-27T09:42:22;102219.56;;;13.17;44.54
71774;BME280;59607;52.130;5.430;2023-04-27T09:44:52;102216.72;;;13.28;45.21
71774;BME280;59607;52.130;5.430;2023-04-27T09:47:19;102217.13;;;13.24;46.15
71774;BME280;59607;52.130;5.430;2023-04-27T09:49:46;102223.72;;;13.10;43.85
71774;BME280;59607;52.130;5.430;2023-04-27T09:52:29;102226.75;;;12.77;43.96
71774;BME280;59607;52.130;5.430;2023-04-27T09:54:59;102218.91;;;13.05;43.75
71774;BME280;59607;52.130;5.430;2023-04-27T09:57:35;102212.22;;;12.73;42.50
71774;BME280;59607;52.130;5.430;2023-04-27T10:08:42;102204.78;;;12.96;43.59
71774;BME280;59607;52.130;5.430;2023-04-27T10:11:17;102205.06;;;12.93;43.60
71774;BME280;59607;52.130;5.430;2023-04-27T10:13:52;102211.50;;;13.18;43.53
71774;BME280;59607;52.130;5.430;2023-04-27T10:16:20;102212.91;;;13.13;42.42
71774;BME280;59607;52.130;5.430;2023-04-27T10:19:08;102218.09;;;12.94;42.98
71774;BME280;59607;52.130;5.430;2023-04-27T10:21:59;102214.59;;;13.14;42.73
71774;BME280;59607;52.130;5.430;2023-04-27T10:24:40;102209.66;;;13.57;43.32
71774;BME280;59607;52.130;5.430;2023-04-27T10:27:18;102208.16;;;13.91;42.96
71774;BME280;59607;52.130;5.430;2023-04-27T10:29:47;102215.91;;;13.74;41.59
71774;BME280;59607;52.130;5.430;2023-04-27T10:32:24;102208.66;;;13.58;42.11
71774;BME280;59607;52.130;5.430;2023-04-27T10:35:04;102191.34;;;13.92;41.73
71774;BME280;59607;52.130;5.430;2023-04-27T10:37:39;102204.41;;;13.75;44.03
71774;BME280;59607;52.130;5.430;2023-04-27T10:40:11;102195.44;;;13.86;44.35
71774;BME280;59607;52.130;5.430;2023-04-27T10:42:50;102196.00;;;14.16;42.50
71774;BME280;59607;52.130;5.430;2023-04-27T10:45:28;102204.06;;;14.15;42.89
71774;BME280;59607;52.130;5.430;2023-04-27T10:47:58;102205.28;;;14.21;41.80
71774;BME280;59607;52.130;5.430;2023-04-27T10:50:31;102195.34;;;14.41;43.22
71774;BME280;59607;52.130;5.430;2023-04-27T10:52:59;102196.09;;;14.51;40.89
71774;BME280;59607;52.130;5.430;2023-04-27T10:55:34;102193.19;;;14.36;41.63
71774;BME280;59607;52.130;5.430;2023-04-27T10:58:01;102196.13;;;14.33;41.53
71774;BME280;59607;52.130;5.430;2023-04-27T11:00:29;102191.94;;;14.22;41.00
71774;BME280;59607;52.130;5.430;2023-04-27T11:03:14;102200.94;;;13.93;41.40
71774;BME280;59607;52.130;5.430;2023-04-27T11:05:46;102188.53;;;14.30;41.05
71774;BME280;59607;52.130;5.430;2023-04-27T11:08:24;102188.81;;;14.53;41.41
71774;BME280;59607;52.130;5.430;2023-04-27T11:10:53;102186.06;;;14.82;41.17
71774;BME280;59607;52.130;5.430;2023-04-27T11:13:23;102175.09;;;15.03;41.91
71774;BME280;59607;52.130;5.430;2023-04-27T11:15:52;102169.16;;;15.09;40.12
71774;BME280;59607;52.130;5.430;2023-04-27T11:18:29;102168.84;;;15.12;38.69
71774;BME280;59607;52.130;5.430;2023-04-27T11:21:14;102162.78;;;14.59;38.91
71774;BME280;59607;52.130;5.430;2023-04-27T11:23:44;102156.56;;;14.15;39.49
71774;BME280;59607;52.130;5.430;2023-04-27T11:26:19;102151.16;;;14.16;39.58
71774;BME280;59607;52.130;5.430;2023-04-27T11:29:02;102145.88;;;14.43;40.56
71774;BME280;59607;52.130;5.430;2023-04-27T11:31:55;102145.72;;;14.71;40.18
71774;BME280;59607;52.130;5.430;2023-04-27T11:34:25;102144.03;;;14.97;39.77
71774;BME280;59607;52.130;5.430;2023-04-27T11:37:02;102142.50;;;14.94;39.04
71774;BME280;59607;52.130;5.430;2023-04-27T11:39:44;102147.63;;;14.87;38.57
71774;BME280;59607;52.130;5.430;2023-04-27T11:42:25;102143.47;;;14.85;39.71
71774;BME280;59607;52.130;5.430;2023-04-27T11:45:04;102141.72;;;15.02;37.90
71774;BME280;59607;52.130;5.430;2023-04-27T11:47:32;102139.44;;;14.46;38.55
71774;BME280;59607;52.130;5.430;2023-04-27T11:50:06;102140.75;;;14.41;38.84
71774;BME280;59607;52.130;5.430;2023-04-27T11:52:38;102144.38;;;14.40;39.33
71774;BME280;59607;52.130;5.430;2023-04-27T11:55:08;102152.56;;;14.29;39.43
71774;BME280;59607;52.130;5.430;2023-04-27T11:57:55;102145.03;;;14.42;38.87
71774;BME280;59607;52.130;5.430;2023-04-27T12:00:27;102140.84;;;14.58;38.55
71774;BME280;59607;52.130;5.430;2023-04-27T12:02:56;102133.25;;;14.90;38.90
71774;BME280;59607;52.130;5.430;2023-04-27T12:05:29;102132.41;;;14.89;37.31
71774;BME280;59607;52.130;5.430;2023-04-27T12:07:58;102124.41;;;15.08;37.74
71774;BME280;59607;52.130;5.430;2023-04-27T12:10:28;102124.47;;;14.81;37.09
71774;BME280;59607;52.130;5.430;2023-04-27T12:12:59;102130.84;;;15.05;38.86
71774;BME280;59607;52.130;5.430;2023-04-27T12:15:25;102127.44;;;15.46;36.60
71774;BME280;59607;52.130;5.430;2023-04-27T12:17:55;102131.91;;;15.46;36.95
71774;BME280;59607;52.130;5.430;2023-04-27T12:20:21;102134.56;;;15.79;36.91
71774;BME280;59607;52.130;5.430;2023-04-27T12:22:48;102123.66;;;15.49;37.14
71774;BME280;59607;52.130;5.430;2023-04-27T12:25:14;102129.91;;;15.39;37.22
71774;BME280;59607;52.130;5.430;2023-04-27T12:27:47;102132.22;;;15.34;36.17
71774;BME280;59607;52.130;5.430;2023-04-27T12:30:16;102116.34;;;15.17;36.53
71774;BME280;59607;52.130;5.430;2023-04-27T12:32:56;102109.84;;;14.95;37.78
71774;BME280;59607;52.130;5.430;2023-04-27T12:35:24;102102.66;;;14.79;37.25
71774;BME280;59607;52.130;5.430;2023-04-27T12:37:51;102102.09;;;14.67;38.03
71774;BME280;59607;52.130;5.430;2023-04-27T12:40:17;102101.94;;;15.03;37.27
71774;BME280;59607;52.130;5.430;2023-04-27T12:42:44;102100.09;;;15.04;37.18
71774;BME280;59607;52.130;5.430;2023-04-27T12:45:16;102094.56;;;15.40;37.28
71774;BME280;59607;52.130;5.430;2023-04-27T12:47:42;102096.56;;;15.63;37.17
71774;BME280;59607;52.130;5.430;2023-04-27T12:50:29;102085.63;;;16.00;38.45
71774;BME280;59607;52.130;5.430;2023-04-27T12:53:02;102087.56;;;16.31;36.10
71774;BME280;59607;52.130;5.430;2023-04-27T12:55:29;102091.34;;;16.28;35.85
71774;BME280;59607;52.130;5.430;2023-04-27T12:58:02;102092.91;;;15.81;35.93
71774;BME280;59607;52.130;5.430;2023-04-27T13:00:30;102084.94;;;16.14;36.40
71774;BME280;59607;52.130;5.430;2023-04-27T13:03:02;102080.72;;;16.37;35.65
71774;BME280;59607;52.130;5.430;2023-04-27T13:05:33;102084.34;;;16.52;36.03
71774;BME280;59607;52.130;5.430;2023-04-27T13:07:59;102075.47;;;16.77;35.89
71774;BME280;59607;52.130;5.430;2023-04-27T13:10:30;102072.75;;;16.85;36.09
71774;BME280;59607;52.130;5.430;2023-04-27T13:12:57;102081.31;;;16.64;35.81
71774;BME280;59607;52.130;5.430;2023-04-27T13:15:27;102079.94;;;16.28;35.54
71774;BME280;59607;52.130;5.430;2023-04-27T13:17:57;102078.22;;;16.44;36.77
71774;BME280;59607;52.130;5.430;2023-04-27T13:20:27;102086.66;;;16.47;35.43